sensor_id;sensor_type;location;lat;lon;timestamp;P1;durP1;ratioP1;P2;durP2;ratioP2
12812;SDS011;6471;50.932;6.934;2022-10-16T00:01:32;2.53;;;2.00;;
12812;SDS011;6471;50.932;6.934;2022-10-16T00:03:58;2.20;;;1.50;;
12812;SDS011;6471;50.932;6.934;2022-10-16T00:06:25;2.47;;;1.80;;
12812;SDS011;6471;50.932;6.934;2022-10-16T00:08:51;1.93;;;1.60;;
12812;SDS011;6471;50.932;6.934;2022-10-16T00:13:44;1.70;;;1.60;;
12812;SDS011;6471;50.932;6.934;2022-10-16T00:16:11;1.57;;;1.47;;
12812;SDS011;6471;50.932;6.934;2022-10-16T00:18:38;1.50;;;1.40;;
12812;SDS011;6471;50.932;6.934;2022-10-16T00:21:05;1.90;;;1.70;;
12812;SDS011;6471;50.932;6.934;2022-10-16T00:23:32;1.50;;;1.40;;
12812;SDS011;6471;50.932;6.934;2022-10-16T00:25:59;2.20;;;1.30;;
12812;SDS011;6471;50.932;6.934;2022-10-16T00:28:25;1.60;;;1.33;;
12812;SDS011;6471;50.932;6.934;2022-10-16T00:30:52;3.10;;;2.20;;
12812;SDS011;6471;50.932;6.934;2022-10-16T00:33:18;1.70;;;1.60;;
12812;SDS011;6471;50.932;6.934;2022-10-16T00:35:45;1.70;;;1.60;;
12812;SDS011;6471;50.932;6.934;2022-10-16T00:38:11;1.73;;;1.40;;
12812;SDS011;6471;50.932;6.934;2022-10-16T00:40:37;2.17;;;1.50;;
12812;SDS011;6471;50.932;6.934;2022-10-16T00:43:13;1.40;;;1.30;;
12812;SDS011;6471;50.932;6.934;2022-10-16T00:45:41;1.70;;;1.23;;
12812;SDS011;6471;50.932;6.934;2022-10-16T00:48:10;1.87;;;1.40;;
12812;SDS011;6471;50.932;6.934;2022-10-16T00:50:36;1.97;;;1.60;;
12812;SDS011;6471;50.932;6.934;2022-10-16T00:53:03;2.03;;;1.60;;
12812;SDS011;6471;50.932;6.934;2022-10-16T00:55:32;2.23;;;1.60;;
12812;SDS011;6471;50.932;6.934;2022-10-16T00:58:03;1.50;;;1.20;;
12812;SDS011;6471;50.932;6.934;2022-10-16T01:00:30;2.00;;;1.40;;
12812;SDS011;6471;50.932;6.934;2022-10-16T01:02:57;1.40;;;1.27;;
12812;SDS011;6471;50.932;6.934;2022-10-16T01:05:23;1.40;;;1.20;;
12812;SDS011;6471;50.932;6.934;2022-10-16T01:10:41;1.80;;;1.30;;
12812;SDS011;6471;50.932;6.934;2022-10-16T01:13:12;1.70;;;1.23;;
12812;SDS011;6471;50.932;6.934;2022-10-16T01:15:52;1.57;;;1.27;;
12812;SDS011;6471;50.932;6.934;2022-10-16T01:21:10;1.70;;;1.17;;
12812;SDS011;6471;50.932;6.934;2022-10-16T01:31:22;1.10;;;1.00;;
12812;SDS011;6471;50.932;6.934;2022-10-16T01:34:00;1.17;;;1.00;;
12812;SDS011;6471;50.932;6.934;2022-10-16T01:36:29;1.67;;;1.10;;
12812;SDS011;6471;50.932;6.934;2022-10-16T01:38:57;1.17;;;1.07;;
12812;SDS011;6471;50.932;6.934;2022-10-16T01:41:39;1.50;;;1.20;;
12812;SDS011;6471;50.932;6.934;2022-10-16T01:46:37;1.10;;;1.00;;
12812;SDS011;6471;50.932;6.934;2022-10-16T01:49:04;1.50;;;1.20;;
12812;SDS011;6471;50.932;6.934;2022-10-16T01:51:31;1.33;;;1.00;;
12812;SDS011;6471;50.932;6.934;2022-10-16T01:53:58;1.20;;;1.10;;
12812;SDS011;6471;50.932;6.934;2022-10-16T01:56:26;1.10;;;1.00;;
12812;SDS011;6471;50.932;6.934;2022-10-16T01:59:04;1.20;;;1.00;;
12812;SDS011;6471;50.932;6.934;2022-10-16T02:01:31;1.17;;;1.07;;
12812;SDS011;6471;50.932;6.934;2022-10-16T02:03:59;1.03;;;0.97;;
12812;SDS011;6471;50.932;6.934;2022-10-16T02:06:27;1.67;;;1.00;;
12812;SDS011;6471;50.932;6.934;2022-10-16T02:08:54;1.23;;;1.13;;
12812;SDS011;6471;50.932;6.934;2022-10-16T02:11:20;1.33;;;1.20;;
12812;SDS011;6471;50.932;6.934;2022-10-16T02:13:48;1.70;;;1.40;;
12812;SDS011;6471;50.932;6.934;2022-10-16T02:16:15;1.50;;;1.20;;
12812;SDS011;6471;50.932;6.934;2022-10-16T02:18:41;1.20;;;1.10;;
12812;SDS011;6471;50.932;6.934;2022-10-16T02:21:11;1.30;;;1.20;;
12812;SDS011;6471;50.932;6.934;2022-10-16T02:23:45;1.20;;;1.10;;
12812;SDS011;6471;50.932;6.934;2022-10-16T02:26:14;1.00;;;0.90;;
12812;SDS011;6471;50.932;6.934;2022-10-16T02:28:52;1.20;;;1.10;;
12812;SDS011;6471;50.932;6.934;2022-10-16T02:31:22;1.20;;;1.10;;
12812;SDS011;6471;50.932;6.934;2022-10-16T02:33:49;1.20;;;1.10;;
12812;SDS011;6471;50.932;6.934;2022-10-16T02:36:17;1.20;;;1.10;;
12812;SDS011;6471;50.932;6.934;2022-10-16T02:38:43;0.90;;;0.90;;
12812;SDS011;6471;50.932;6.934;2022-10-16T02:41:09;1.30;;;1.20;;
12812;SDS011;6471;50.932;6.934;2022-10-16T02:43:36;1.20;;;1.10;;
12812;SDS011;6471;50.932;6.934;2022-10-16T02:46:02;1.17;;;1.07;;
12812;SDS011;6471;50.932;6.934;2022-10-16T02:48:28;1.20;;;1.10;;
12812;SDS011;6471;50.932;6.934;2022-10-16T02:50:54;1.10;;;1.00;;
12812;SDS011;6471;50.932;6.934;2022-10-16T02:53:20;1.10;;;1.00;;
12812;SDS011;6471;50.932;6.934;2022-10-16T02:55:46;1.30;;;1.20;;
12812;SDS011;6471;50.932;6.934;2022-10-16T02:58:13;1.47;;;1.17;;
12812;SDS011;6471;50.932;6.934;2022-10-16T03:00:39;1.30;;;1.10;;
12812;SDS011;6471;50.932;6.934;2022-10-16T03:03:05;1.20;;;1.10;;
12812;SDS011;6471;50.932;6.934;2022-10-16T03:05:31;1.20;;;1.10;;
12812;SDS011;6471;50.932;6.934;2022-10-16T03:07:57;1.10;;;1.00;;
12812;SDS011;6471;50.932;6.934;2022-10-16T03:10:25;1.00;;;0.90;;
12812;SDS011;6471;50.932;6.934;2022-10-16T03:12:51;0.97;;;0.97;;
12812;SDS011;6471;50.932;6.934;2022-10-16T03:15:17;0.97;;;0.90;;
12812;SDS011;6471;50.932;6.934;2022-10-16T03:17:46;1.00;;;0.90;;
12812;SDS011;6471;50.932;6.934;2022-10-16T03:20:15;1.20;;;1.10;;
12812;SDS011;6471;50.932;6.934;2022-10-16T03:22:41;1.43;;;1.20;;
12812;SDS011;6471;50.932;6.934;2022-10-16T03:25:07;0.83;;;0.83;;
12812;SDS011;6471;50.932;6.934;2022-10-16T03:27:33;1.10;;;1.00;;
12812;SDS011;6471;50.932;6.934;2022-10-16T03:30:00;1.10;;;1.00;;
12812;SDS011;6471;50.932;6.934;2022-10-16T03:32:28;1.10;;;1.00;;
12812;SDS011;6471;50.932;6.934;2022-10-16T03:34:54;1.13;;;1.03;;
12812;SDS011;6471;50.932;6.934;2022-10-16T03:37:22;1.30;;;1.20;;
12812;SDS011;6471;50.932;6.934;2022-10-16T03:39:48;1.77;;;1.30;;
12812;SDS011;6471;50.932;6.934;2022-10-16T03:42:14;1.13;;;1.03;;
12812;SDS011;6471;50.932;6.934;2022-10-16T03:44:40;1.10;;;1.00;;
12812;SDS011;6471;50.932;6.934;2022-10-16T03:47:06;1.43;;;1.10;;
12812;SDS011;6471;50.932;6.934;2022-10-16T03:49:32;1.10;;;1.00;;
12812;SDS011;6471;50.932;6.934;2022-10-16T03:51:58;2.00;;;0.90;;
12812;SDS011;6471;50.932;6.934;2022-10-16T03:54:24;1.20;;;1.10;;
12812;SDS011;6471;50.932;6.934;2022-10-16T03:56:51;1.23;;;1.03;;
12812;SDS011;6471;50.932;6.934;2022-10-16T03:59:17;1.20;;;1.10;;
12812;SDS011;6471;50.932;6.934;2022-10-16T04:01:43;1.10;;;1.00;;
12812;SDS011;6471;50.932;6.934;2022-10-16T04:04:09;1.33;;;1.20;;
12812;SDS011;6471;50.932;6.934;2022-10-16T04:06:38;1.20;;;1.00;;
12812;SDS011;6471;50.932;6.934;2022-10-16T04:09:04;1.63;;;1.07;;
12812;SDS011;6471;50.932;6.934;2022-10-16T04:11:33;1.40;;;1.00;;
12812;SDS011;6471;50.932;6.934;2022-10-16T04:13:59;1.10;;;1.00;;
12812;SDS011;6471;50.932;6.934;2022-10-16T04:16:25;1.63;;;1.20;;
12812;SDS011;6471;50.932;6.934;2022-10-16T04:18:51;1.80;;;1.00;;
12812;SDS011;6471;50.932;6.934;2022-10-16T04:21:20;1.13;;;1.00;;
12812;SDS011;6471;50.932;6.934;2022-10-16T04:23:48;1.73;;;1.20;;
12812;SDS011;6471;50.932;6.934;2022-10-16T04:26:14;1.20;;;1.10;;
12812;SDS011;6471;50.932;6.934;2022-10-16T04:28:40;1.00;;;1.00;;
12812;SDS011;6471;50.932;6.934;2022-10-16T04:31:07;1.77;;;1.00;;
12812;SDS011;6471;50.932;6.934;2022-10-16T04:33:33;1.47;;;1.00;;
12812;SDS011;6471;50.932;6.934;2022-10-16T04:36:00;1.37;;;1.03;;
12812;SDS011;6471;50.932;6.934;2022-10-16T04:38:27;1.37;;;1.00;;
12812;SDS011;6471;50.932;6.934;2022-10-16T04:40:55;1.37;;;1.03;;
12812;SDS011;6471;50.932;6.934;2022-10-16T04:43:21;0.90;;;0.90;;
12812;SDS011;6471;50.932;6.934;2022-10-16T04:45:52;0.87;;;0.87;;
12812;SDS011;6471;50.932;6.934;2022-10-16T04:48:19;0.90;;;0.83;;
12812;SDS011;6471;50.932;6.934;2022-10-16T04:50:48;1.10;;;1.00;;
12812;SDS011;6471;50.932;6.934;2022-10-16T04:53:14;1.30;;;1.00;;
12812;SDS011;6471;50.932;6.934;2022-10-16T04:55:40;1.00;;;0.90;;
12812;SDS011;6471;50.932;6.934;2022-10-16T04:58:07;1.10;;;1.00;;
12812;SDS011;6471;50.932;6.934;2022-10-16T05:00:33;1.50;;;0.90;;
12812;SDS011;6471;50.932;6.934;2022-10-16T05:02:59;2.43;;;1.03;;
12812;SDS011;6471;50.932;6.934;2022-10-16T05:05:33;1.33;;;1.00;;
12812;SDS011;6471;50.932;6.934;2022-10-16T05:08:07;1.10;;;1.00;;
12812;SDS011;6471;50.932;6.934;2022-10-16T05:10:36;1.20;;;1.10;;
12812;SDS011;6471;50.932;6.934;2022-10-16T05:13:13;1.30;;;1.17;;
12812;SDS011;6471;50.932;6.934;2022-10-16T05:15:39;1.10;;;1.00;;
12812;SDS011;6471;50.932;6.934;2022-10-16T05:18:05;1.97;;;1.20;;
12812;SDS011;6471;50.932;6.934;2022-10-16T05:20:31;1.10;;;1.00;;
12812;SDS011;6471;50.932;6.934;2022-10-16T05:22:58;1.60;;;1.10;;
12812;SDS011;6471;50.932;6.934;2022-10-16T05:25:24;1.07;;;0.93;;
12812;SDS011;6471;50.932;6.934;2022-10-16T05:27:53;0.90;;;0.90;;
12812;SDS011;6471;50.932;6.934;2022-10-16T05:30:19;1.20;;;1.10;;
12812;SDS011;6471;50.932;6.934;2022-10-16T05:32:50;1.40;;;1.07;;
12812;SDS011;6471;50.932;6.934;2022-10-16T05:35:17;1.83;;;1.10;;
12812;SDS011;6471;50.932;6.934;2022-10-16T05:37:44;1.73;;;1.10;;
12812;SDS011;6471;50.932;6.934;2022-10-16T05:40:11;1.47;;;1.20;;
12812;SDS011;6471;50.932;6.934;2022-10-16T05:42:38;1.80;;;1.20;;
12812;SDS011;6471;50.932;6.934;2022-10-16T05:45:04;1.00;;;1.00;;
12812;SDS011;6471;50.932;6.934;2022-10-16T05:47:31;0.90;;;0.90;;
12812;SDS011;6471;50.932;6.934;2022-10-16T05:49:57;0.80;;;0.80;;
12812;SDS011;6471;50.932;6.934;2022-10-16T05:52:23;1.17;;;1.00;;
12812;SDS011;6471;50.932;6.934;2022-10-16T05:54:52;0.90;;;0.90;;
12812;SDS011;6471;50.932;6.934;2022-10-16T05:57:18;1.10;;;1.00;;
12812;SDS011;6471;50.932;6.934;2022-10-16T05:59:44;1.30;;;1.00;;
12812;SDS011;6471;50.932;6.934;2022-10-16T06:02:14;0.80;;;0.80;;
12812;SDS011;6471;50.932;6.934;2022-10-16T06:04:40;1.23;;;1.00;;
12812;SDS011;6471;50.932;6.934;2022-10-16T06:07:06;1.20;;;1.10;;
12812;SDS011;6471;50.932;6.934;2022-10-16T06:09:35;1.17;;;1.00;;
12812;SDS011;6471;50.932;6.934;2022-10-16T06:12:01;1.20;;;1.00;;
12812;SDS011;6471;50.932;6.934;2022-10-16T06:14:27;1.17;;;1.07;;
12812;SDS011;6471;50.932;6.934;2022-10-16T06:16:53;1.30;;;1.20;;
12812;SDS011;6471;50.932;6.934;2022-10-16T06:19:19;1.07;;;0.97;;
12812;SDS011;6471;50.932;6.934;2022-10-16T06:21:48;1.13;;;1.03;;
12812;SDS011;6471;50.932;6.934;2022-10-16T06:24:17;1.40;;;1.10;;
12812;SDS011;6471;50.932;6.934;2022-10-16T06:26:46;1.03;;;1.00;;
12812;SDS011;6471;50.932;6.934;2022-10-16T06:29:16;1.17;;;1.07;;
12812;SDS011;6471;50.932;6.934;2022-10-16T06:31:42;1.40;;;1.30;;
12812;SDS011;6471;50.932;6.934;2022-10-16T06:34:09;2.07;;;1.10;;
12812;SDS011;6471;50.932;6.934;2022-10-16T06:36:36;1.67;;;1.30;;
12812;SDS011;6471;50.932;6.934;2022-10-16T06:39:05;1.23;;;1.13;;
12812;SDS011;6471;50.932;6.934;2022-10-16T06:41:32;2.83;;;1.57;;
12812;SDS011;6471;50.932;6.934;2022-10-16T06:46:51;1.50;;;1.40;;
12812;SDS011;6471;50.932;6.934;2022-10-16T06:49:20;1.77;;;1.30;;
12812;SDS011;6471;50.932;6.934;2022-10-16T06:51:47;1.40;;;1.30;;
12812;SDS011;6471;50.932;6.934;2022-10-16T06:54:14;2.47;;;2.20;;
12812;SDS011;6471;50.932;6.934;2022-10-16T06:56:41;8.13;;;6.23;;
12812;SDS011;6471;50.932;6.934;2022-10-16T06:59:10;13.83;;;10.17;;
12812;SDS011;6471;50.932;6.934;2022-10-16T07:01:37;8.93;;;6.80;;
12812;SDS011;6471;50.932;6.934;2022-10-16T07:04:03;9.53;;;6.30;;
12812;SDS011;6471;50.932;6.934;2022-10-16T07:06:36;8.57;;;5.40;;
12812;SDS011;6471;50.932;6.934;2022-10-16T07:09:03;7.17;;;5.30;;
12812;SDS011;6471;50.932;6.934;2022-10-16T07:11:30;5.43;;;3.50;;
12812;SDS011;6471;50.932;6.934;2022-10-16T07:13:58;4.17;;;3.17;;
12812;SDS011;6471;50.932;6.934;2022-10-16T07:16:26;4.03;;;2.53;;
12812;SDS011;6471;50.932;6.934;2022-10-16T07:18:55;2.63;;;2.30;;
12812;SDS011;6471;50.932;6.934;2022-10-16T07:21:25;2.47;;;1.80;;
12812;SDS011;6471;50.932;6.934;2022-10-16T07:23:54;1.80;;;1.60;;
12812;SDS011;6471;50.932;6.934;2022-10-16T07:26:21;1.40;;;1.30;;
12812;SDS011;6471;50.932;6.934;2022-10-16T07:28:47;1.43;;;1.33;;
12812;SDS011;6471;50.932;6.934;2022-10-16T07:31:14;1.80;;;1.50;;
12812;SDS011;6471;50.932;6.934;2022-10-16T07:33:40;1.20;;;1.10;;
12812;SDS011;6471;50.932;6.934;2022-10-16T07:36:08;4.77;;;3.27;;
12812;SDS011;6471;50.932;6.934;2022-10-16T07:38:34;3.37;;;2.37;;
12812;SDS011;6471;50.932;6.934;2022-10-16T07:41:06;3.17;;;2.03;;
12812;SDS011;6471;50.932;6.934;2022-10-16T07:43:37;2.20;;;2.00;;
12812;SDS011;6471;50.932;6.934;2022-10-16T07:46:12;2.07;;;1.70;;
12812;SDS011;6471;50.932;6.934;2022-10-16T07:48:48;2.13;;;1.70;;
12812;SDS011;6471;50.932;6.934;2022-10-16T07:51:18;1.57;;;1.47;;
12812;SDS011;6471;50.932;6.934;2022-10-16T07:53:48;1.63;;;1.37;;
12812;SDS011;6471;50.932;6.934;2022-10-16T07:56:14;1.10;;;1.00;;
12812;SDS011;6471;50.932;6.934;2022-10-16T07:58:41;1.40;;;1.30;;
12812;SDS011;6471;50.932;6.934;2022-10-16T08:01:08;1.20;;;1.10;;
12812;SDS011;6471;50.932;6.934;2022-10-16T08:03:34;1.30;;;1.20;;
12812;SDS011;6471;50.932;6.934;2022-10-16T08:06:01;1.20;;;1.07;;
12812;SDS011;6471;50.932;6.934;2022-10-16T08:08:27;1.13;;;1.03;;
12812;SDS011;6471;50.932;6.934;2022-10-16T08:10:53;1.20;;;1.10;;
12812;SDS011;6471;50.932;6.934;2022-10-16T08:13:20;1.27;;;1.10;;
12812;SDS011;6471;50.932;6.934;2022-10-16T08:15:53;0.87;;;0.87;;
12812;SDS011;6471;50.932;6.934;2022-10-16T08:18:19;1.27;;;1.17;;
12812;SDS011;6471;50.932;6.934;2022-10-16T08:20:45;1.30;;;1.20;;
12812;SDS011;6471;50.932;6.934;2022-10-16T08:23:12;1.40;;;1.20;;
12812;SDS011;6471;50.932;6.934;2022-10-16T08:25:41;2.37;;;1.50;;
12812;SDS011;6471;50.932;6.934;2022-10-16T08:28:09;1.47;;;1.30;;
12812;SDS011;6471;50.932;6.934;2022-10-16T08:30:35;1.80;;;1.20;;
12812;SDS011;6471;50.932;6.934;2022-10-16T08:33:02;2.70;;;1.10;;
12812;SDS011;6471;50.932;6.934;2022-10-16T08:35:31;1.43;;;1.20;;
12812;SDS011;6471;50.932;6.934;2022-10-16T08:37:57;1.23;;;1.03;;
12812;SDS011;6471;50.932;6.934;2022-10-16T08:40:28;1.67;;;1.10;;
12812;SDS011;6471;50.932;6.934;2022-10-16T08:45:34;1.10;;;1.00;;
12812;SDS011;6471;50.932;6.934;2022-10-16T08:50:38;1.20;;;1.10;;
12812;SDS011;6471;50.932;6.934;2022-10-16T08:53:05;1.10;;;1.00;;
12812;SDS011;6471;50.932;6.934;2022-10-16T08:55:49;1.00;;;0.90;;
12812;SDS011;6471;50.932;6.934;2022-10-16T08:58:36;0.90;;;0.90;;
12812;SDS011;6471;50.932;6.934;2022-10-16T09:01:11;1.33;;;1.10;;
12812;SDS011;6471;50.932;6.934;2022-10-16T09:09:16;1.20;;;1.10;;
12812;SDS011;6471;50.932;6.934;2022-10-16T09:12:04;1.60;;;1.30;;
12812;SDS011;6471;50.932;6.934;2022-10-16T09:20:19;2.00;;;1.37;;
12812;SDS011;6471;50.932;6.934;2022-10-16T09:22:46;2.00;;;1.10;;
12812;SDS011;6471;50.932;6.934;2022-10-16T09:25:13;1.80;;;1.50;;
12812;SDS011;6471;50.932;6.934;2022-10-16T09:27:40;2.13;;;1.37;;
12812;SDS011;6471;50.932;6.934;2022-10-16T09:30:16;1.53;;;1.30;;
12812;SDS011;6471;50.932;6.934;2022-10-16T09:32:46;1.67;;;1.20;;
12812;SDS011;6471;50.932;6.934;2022-10-16T09:35:14;2.23;;;1.40;;
12812;SDS011;6471;50.932;6.934;2022-10-16T09:37:42;1.43;;;1.20;;
12812;SDS011;6471;50.932;6.934;2022-10-16T09:40:12;1.27;;;1.17;;
12812;SDS011;6471;50.932;6.934;2022-10-16T09:42:40;1.10;;;0.93;;
12812;SDS011;6471;50.932;6.934;2022-10-16T09:45:19;2.20;;;1.00;;
12812;SDS011;6471;50.932;6.934;2022-10-16T09:47:46;1.50;;;1.20;;
12812;SDS011;6471;50.932;6.934;2022-10-16T09:50:30;1.10;;;1.00;;
12812;SDS011;6471;50.932;6.934;2022-10-16T09:53:13;0.97;;;0.80;;
12812;SDS011;6471;50.932;6.934;2022-10-16T09:55:52;1.17;;;0.97;;
12812;SDS011;6471;50.932;6.934;2022-10-16T09:58:22;1.47;;;0.90;;
12812;SDS011;6471;50.932;6.934;2022-10-16T10:00:50;1.00;;;0.83;;
12812;SDS011;6471;50.932;6.934;2022-10-16T10:05:53;1.50;;;1.17;;
12812;SDS011;6471;50.932;6.934;2022-10-16T10:08:19;1.50;;;1.00;;
12812;SDS011;6471;50.932;6.934;2022-10-16T10:10:45;1.80;;;1.10;;
12812;SDS011;6471;50.932;6.934;2022-10-16T10:13:21;1.93;;;1.10;;
12812;SDS011;6471;50.932;6.934;2022-10-16T10:15:47;1.33;;;1.10;;
12812;SDS011;6471;50.932;6.934;2022-10-16T10:18:17;1.83;;;1.23;;
12812;SDS011;6471;50.932;6.934;2022-10-16T10:20:44;1.30;;;1.10;;
12812;SDS011;6471;50.932;6.934;2022-10-16T10:23:21;1.23;;;0.90;;
12812;SDS011;6471;50.932;6.934;2022-10-16T10:36:34;2.87;;;1.77;;
12812;SDS011;6471;50.932;6.934;2022-10-16T10:46:51;1.87;;;1.10;;
12812;SDS011;6471;50.932;6.934;2022-10-16T10:49:24;2.03;;;1.10;;
12812;SDS011;6471;50.932;6.934;2022-10-16T10:54:31;1.63;;;1.07;;
12812;SDS011;6471;50.932;6.934;2022-10-16T10:57:01;1.33;;;1.00;;
12812;SDS011;6471;50.932;6.934;2022-10-16T11:02:05;1.23;;;0.87;;
12812;SDS011;6471;50.932;6.934;2022-10-16T11:07:15;1.67;;;1.00;;
12812;SDS011;6471;50.932;6.934;2022-10-16T11:09:51;1.53;;;0.80;;
12812;SDS011;6471;50.932;6.934;2022-10-16T11:15:04;1.00;;;0.73;;
12812;SDS011;6471;50.932;6.934;2022-10-16T11:17:35;1.10;;;0.87;;
12812;SDS011;6471;50.932;6.934;2022-10-16T11:20:14;1.67;;;1.00;;
12812;SDS011;6471;50.932;6.934;2022-10-16T11:25:24;1.10;;;0.80;;
12812;SDS011;6471;50.932;6.934;2022-10-16T11:28:02;0.90;;;0.70;;
12812;SDS011;6471;50.932;6.934;2022-10-16T11:30:30;1.17;;;0.90;;
12812;SDS011;6471;50.932;6.934;2022-10-16T11:35:32;1.57;;;1.17;;
12812;SDS011;6471;50.932;6.934;2022-10-16T11:38:00;1.00;;;0.87;;
12812;SDS011;6471;50.932;6.934;2022-10-16T11:40:31;1.60;;;1.00;;
12812;SDS011;6471;50.932;6.934;2022-10-16T11:43:15;1.73;;;1.10;;
12812;SDS011;6471;50.932;6.934;2022-10-16T11:45:43;0.67;;;0.67;;
12812;SDS011;6471;50.932;6.934;2022-10-16T11:50:43;1.50;;;1.00;;
12812;SDS011;6471;50.932;6.934;2022-10-16T11:55:40;0.70;;;0.70;;
12812;SDS011;6471;50.932;6.934;2022-10-16T11:58:08;0.67;;;0.53;;
12812;SDS011;6471;50.932;6.934;2022-10-16T12:00:50;1.70;;;0.80;;
12812;SDS011;6471;50.932;6.934;2022-10-16T12:05:50;0.80;;;0.80;;
12812;SDS011;6471;50.932;6.934;2022-10-16T12:08:18;1.80;;;0.77;;
12812;SDS011;6471;50.932;6.934;2022-10-16T12:10:45;1.77;;;1.00;;
12812;SDS011;6471;50.932;6.934;2022-10-16T12:18:39;0.80;;;0.60;;
12812;SDS011;6471;50.932;6.934;2022-10-16T12:21:05;0.47;;;0.47;;
12812;SDS011;6471;50.932;6.934;2022-10-16T12:23:32;1.00;;;0.77;;
12812;SDS011;6471;50.932;6.934;2022-10-16T12:25:59;0.70;;;0.60;;
12812;SDS011;6471;50.932;6.934;2022-10-16T12:28:30;1.50;;;0.70;;
12812;SDS011;6471;50.932;6.934;2022-10-16T12:31:01;1.10;;;0.90;;
12812;SDS011;6471;50.932;6.934;2022-10-16T12:35:58;1.73;;;0.87;;
12812;SDS011;6471;50.932;6.934;2022-10-16T12:41:09;0.83;;;0.80;;
12812;SDS011;6471;50.932;6.934;2022-10-16T12:48:37;0.80;;;0.60;;
12812;SDS011;6471;50.932;6.934;2022-10-16T12:54:03;2.27;;;0.90;;
12812;SDS011;6471;50.932;6.934;2022-10-16T13:02:09;0.80;;;0.70;;
12812;SDS011;6471;50.932;6.934;2022-10-16T13:04:43;0.50;;;0.50;;
12812;SDS011;6471;50.932;6.934;2022-10-16T13:17:21;1.63;;;0.90;;
12812;SDS011;6471;50.932;6.934;2022-10-16T13:22:51;1.23;;;1.00;;
12812;SDS011;6471;50.932;6.934;2022-10-16T13:28:11;0.80;;;0.80;;
12812;SDS011;6471;50.932;6.934;2022-10-16T13:30:41;0.90;;;0.80;;
12812;SDS011;6471;50.932;6.934;2022-10-16T13:33:17;0.80;;;0.73;;
12812;SDS011;6471;50.932;6.934;2022-10-16T13:35:53;0.63;;;0.63;;
12812;SDS011;6471;50.932;6.934;2022-10-16T13:38:20;1.30;;;0.80;;
12812;SDS011;6471;50.932;6.934;2022-10-16T13:40:50;1.70;;;1.00;;
12812;SDS011;6471;50.932;6.934;2022-10-16T13:43:17;0.80;;;0.80;;
12812;SDS011;6471;50.932;6.934;2022-10-16T13:46:45;0.83;;;0.70;;
12812;SDS011;6471;50.932;6.934;2022-10-16T13:48:40;0.90;;;0.80;;
12812;SDS011;6471;50.932;6.934;2022-10-16T13:53:33;0.60;;;0.60;;
12812;SDS011;6471;50.932;6.934;2022-10-16T13:55:59;0.90;;;0.80;;
12812;SDS011;6471;50.932;6.934;2022-10-16T13:58:26;1.27;;;0.87;;
12812;SDS011;6471;50.932;6.934;2022-10-16T14:00:56;0.97;;;0.90;;
12812;SDS011;6471;50.932;6.934;2022-10-16T14:03:22;1.00;;;0.90;;
12812;SDS011;6471;50.932;6.934;2022-10-16T14:05:53;0.83;;;0.83;;
12812;SDS011;6471;50.932;6.934;2022-10-16T14:08:20;1.33;;;1.00;;
12812;SDS011;6471;50.932;6.934;2022-10-16T14:10:50;1.00;;;0.80;;
12812;SDS011;6471;50.932;6.934;2022-10-16T14:13:17;1.23;;;0.90;;
12812;SDS011;6471;50.932;6.934;2022-10-16T14:15:49;1.87;;;0.90;;
12812;SDS011;6471;50.932;6.934;2022-10-16T14:18:17;1.30;;;1.00;;
12812;SDS011;6471;50.932;6.934;2022-10-16T14:20:44;1.50;;;0.80;;
12812;SDS011;6471;50.932;6.934;2022-10-16T14:25:46;1.00;;;0.90;;
12812;SDS011;6471;50.932;6.934;2022-10-16T14:33:20;1.17;;;0.80;;
12812;SDS011;6471;50.932;6.934;2022-10-16T14:35:56;0.70;;;0.70;;
12812;SDS011;6471;50.932;6.934;2022-10-16T14:38:24;1.10;;;0.90;;
12812;SDS011;6471;50.932;6.934;2022-10-16T14:40:50;0.80;;;0.80;;
12812;SDS011;6471;50.932;6.934;2022-10-16T14:43:20;1.03;;;0.93;;
12812;SDS011;6471;50.932;6.934;2022-10-16T14:45:50;0.70;;;0.70;;
12812;SDS011;6471;50.932;6.934;2022-10-16T14:48:17;0.90;;;0.90;;
12812;SDS011;6471;50.932;6.934;2022-10-16T14:50:44;0.80;;;0.80;;
12812;SDS011;6471;50.932;6.934;2022-10-16T14:53:11;0.90;;;0.80;;
12812;SDS011;6471;50.932;6.934;2022-10-16T14:55:45;1.07;;;0.97;;
12812;SDS011;6471;50.932;6.934;2022-10-16T14:58:13;1.03;;;0.97;;
12812;SDS011;6471;50.932;6.934;2022-10-16T15:00:41;0.93;;;0.90;;
12812;SDS011;6471;50.932;6.934;2022-10-16T15:03:07;1.33;;;1.10;;
12812;SDS011;6471;50.932;6.934;2022-10-16T15:05:33;1.10;;;1.00;;
12812;SDS011;6471;50.932;6.934;2022-10-16T15:07:59;1.10;;;1.00;;
12812;SDS011;6471;50.932;6.934;2022-10-16T15:10:26;1.20;;;1.03;;
12812;SDS011;6471;50.932;6.934;2022-10-16T15:12:52;2.20;;;1.60;;
12812;SDS011;6471;50.932;6.934;2022-10-16T15:17:47;2.03;;;1.30;;
12812;SDS011;6471;50.932;6.934;2022-10-16T15:20:17;1.70;;;1.33;;
12812;SDS011;6471;50.932;6.934;2022-10-16T15:22:43;1.67;;;1.37;;
12812;SDS011;6471;50.932;6.934;2022-10-16T15:25:17;1.30;;;1.17;;
12812;SDS011;6471;50.932;6.934;2022-10-16T15:27:50;1.33;;;1.10;;
12812;SDS011;6471;50.932;6.934;2022-10-16T15:30:16;1.13;;;1.03;;
12812;SDS011;6471;50.932;6.934;2022-10-16T15:32:43;1.30;;;1.13;;
12812;SDS011;6471;50.932;6.934;2022-10-16T15:35:09;1.40;;;1.10;;
12812;SDS011;6471;50.932;6.934;2022-10-16T15:37:35;1.77;;;1.20;;
12812;SDS011;6471;50.932;6.934;2022-10-16T15:40:03;1.50;;;1.17;;
12812;SDS011;6471;50.932;6.934;2022-10-16T15:42:29;1.77;;;1.40;;
12812;SDS011;6471;50.932;6.934;2022-10-16T15:44:55;2.33;;;1.20;;
12812;SDS011;6471;50.932;6.934;2022-10-16T15:47:21;1.40;;;1.30;;
12812;SDS011;6471;50.932;6.934;2022-10-16T15:49:48;3.10;;;1.80;;
12812;SDS011;6471;50.932;6.934;2022-10-16T15:52:14;3.10;;;1.60;;
12812;SDS011;6471;50.932;6.934;2022-10-16T15:54:40;1.73;;;1.50;;
12812;SDS011;6471;50.932;6.934;2022-10-16T15:57:07;1.73;;;1.40;;
12812;SDS011;6471;50.932;6.934;2022-10-16T15:59:33;1.63;;;1.30;;
12812;SDS011;6471;50.932;6.934;2022-10-16T16:01:59;3.40;;;2.10;;
12812;SDS011;6471;50.932;6.934;2022-10-16T16:04:25;3.43;;;2.60;;
12812;SDS011;6471;50.932;6.934;2022-10-16T16:06:51;5.17;;;3.70;;
12812;SDS011;6471;50.932;6.934;2022-10-16T16:09:17;8.63;;;5.70;;
12812;SDS011;6471;50.932;6.934;2022-10-16T16:11:43;6.33;;;5.07;;
12812;SDS011;6471;50.932;6.934;2022-10-16T16:14:10;7.47;;;4.87;;
12812;SDS011;6471;50.932;6.934;2022-10-16T16:16:37;10.77;;;7.70;;
12812;SDS011;6471;50.932;6.934;2022-10-16T16:19:04;10.63;;;7.73;;
12812;SDS011;6471;50.932;6.934;2022-10-16T16:21:31;8.30;;;6.47;;
12812;SDS011;6471;50.932;6.934;2022-10-16T16:23:58;7.07;;;5.53;;
12812;SDS011;6471;50.932;6.934;2022-10-16T16:26:25;6.00;;;4.53;;
12812;SDS011;6471;50.932;6.934;2022-10-16T16:28:51;4.67;;;3.63;;
12812;SDS011;6471;50.932;6.934;2022-10-16T16:31:18;3.97;;;2.77;;
12812;SDS011;6471;50.932;6.934;2022-10-16T16:33:46;2.87;;;2.17;;
12812;SDS011;6471;50.932;6.934;2022-10-16T16:36:13;2.33;;;1.90;;
12812;SDS011;6471;50.932;6.934;2022-10-16T16:38:39;1.93;;;1.63;;
12812;SDS011;6471;50.932;6.934;2022-10-16T16:41:15;1.73;;;1.40;;
12812;SDS011;6471;50.932;6.934;2022-10-16T16:43:42;1.37;;;1.20;;
12812;SDS011;6471;50.932;6.934;2022-10-16T16:46:08;1.33;;;1.20;;
12812;SDS011;6471;50.932;6.934;2022-10-16T16:48:34;1.60;;;1.07;;
12812;SDS011;6471;50.932;6.934;2022-10-16T16:51:07;1.30;;;1.13;;
12812;SDS011;6471;50.932;6.934;2022-10-16T16:53:34;1.40;;;1.10;;
12812;SDS011;6471;50.932;6.934;2022-10-16T16:56:00;1.20;;;1.10;;
12812;SDS011;6471;50.932;6.934;2022-10-16T16:58:27;3.97;;;3.20;;
12812;SDS011;6471;50.932;6.934;2022-10-16T17:00:53;5.67;;;4.30;;
12812;SDS011;6471;50.932;6.934;2022-10-16T17:03:19;4.73;;;3.60;;
12812;SDS011;6471;50.932;6.934;2022-10-16T17:05:54;4.20;;;3.03;;
12812;SDS011;6471;50.932;6.934;2022-10-16T17:08:26;3.03;;;2.43;;
12812;SDS011;6471;50.932;6.934;2022-10-16T17:10:54;6.10;;;4.57;;
12812;SDS011;6471;50.932;6.934;2022-10-16T17:29:05;2.20;;;1.80;;
12812;SDS011;6471;50.932;6.934;2022-10-16T17:31:35;1.83;;;1.70;;
12812;SDS011;6471;50.932;6.934;2022-10-16T17:34:09;2.50;;;2.00;;
12812;SDS011;6471;50.932;6.934;2022-10-16T17:36:38;1.80;;;1.60;;
12812;SDS011;6471;50.932;6.934;2022-10-16T17:39:09;2.23;;;1.50;;